Marfret Guyane — FNMV — position and weather

sailwx.info

Track history (hours):
 
Tides and Currents Weather Stations Pressure Air Temp Water Temp Dewpoint Dewpoint Depression Visibility Wind Speed Wind Dir Waves Ship Positions

Marfret Guyane

Last reported at 2018-Apr-20 19:27 UTC. Time now 2018-Apr-22 04:54 UTC.
Position N 16°06' W 062°51'.

Length 170 m; draft 8.4 m.

Type: Cargo ship. MMSI: 226324000.

Date/timePositionNaut miles runAvg speedWind from/ knotsBaromVisibWave heightAir tempDewpointWater temp
2018-Apr-20 19:27N 16°06' W 062°51'1216.9
2018-Apr-20 18:44N 16°18' W 062°53'817.3
2018-Apr-20 18:16N 16°26' W 062°55'5617.3
2018-Apr-20 15:03N 17°21' W 063°04'116.7
2018-Apr-20 15:00N 17°22' W 063°05'1017.3
2018-Apr-20 14:26N 17°31' W 063°06'817.4
2018-Apr-20 13:57N 17°40' W 063°06'816.6
2018-Apr-20 13:28N 17°48' W 063°05'1215.5
2018-Apr-20 12:43N 17°59' W 063°05'210.0
2018-Apr-20 12:30N 18°00' W 063°03'1 1.0
2018-Apr-20 11:56N 18°01' W 063°03'0 0.0
2018-Apr-20 11:26N 18°01' W 063°03'0 0.0
2018-Apr-20 10:44N 18°01' W 063°03'0 0.0
2018-Apr-20 10:14N 18°01' W 063°03'0 0.0
2018-Apr-20 09:47N 18°01' W 063°03'0 0.0
2018-Apr-20 09:29N 18°01' W 063°03'0 0.0
2018-Apr-20 08:59N 18°01' W 063°03'0 0.0
2018-Apr-20 08:20N 18°01' W 063°03'0 0.0
2018-Apr-20 07:50N 18°01' W 063°03'0 0.0
2018-Apr-20 07:20N 18°01' W 063°03'0 0.0
2018-Apr-20 06:53N 18°01' W 063°03'0 0.0
2018-Apr-20 06:08N 18°01' W 063°03'0 0.0
2018-Apr-20 05:50N 18°01' W 063°03'0 0.0
2018-Apr-20 05:23N 18°01' W 063°03'0 0.0
2018-Apr-20 04:41N 18°01' W 063°03'0 0.0
2018-Apr-20 04:26N 18°01' W 063°03'0 0.0
2018-Apr-20 03:56N 18°01' W 063°03'0 0.0
2018-Apr-20 03:26N 18°01' W 063°03'0 0.0
2018-Apr-20 02:56N 18°01' W 063°03'0 0.0
2018-Apr-20 02:26N 18°01' W 063°03'0 0.0
2018-Apr-20 01:56N 18°01' W 063°03'0 0.0
2018-Apr-20 01:26N 18°01' W 063°03'0 0.0
2018-Apr-20 00:47N 18°01' W 063°03'0 0.0
2018-Apr-20 00:29N 18°01' W 063°03'0 0.0
2018-Apr-19 23:47N 18°01' W 063°03'0 0.0
2018-Apr-19 23:17N 18°01' W 063°03'0 0.0
2018-Apr-19 22:59N 18°01' W 063°03'0 0.0
2018-Apr-19 22:29N 18°01' W 063°03'0 0.0
2018-Apr-19 21:50N 18°01' W 063°03'0 0.0
2018-Apr-19 21:20N 18°01' W 063°03'0 0.0
2018-Apr-19 20:50N 18°01' W 063°03'0 0.0
2018-Apr-19 20:23N 18°01' W 063°03'0 0.0
2018-Apr-19 18:56N 18°01' W 063°03'0 0.0
2018-Apr-19 18:23N 18°01' W 063°03'0 0.0
2018-Apr-19 16:56N 18°01' W 063°03'0 0.0
2018-Apr-19 16:29N 18°01' W 063°03'0 0.0
2018-Apr-19 15:59N 18°01' W 063°03'0 0.0
2018-Apr-19 15:29N 18°01' W 063°03'0 0.0
2018-Apr-19 14:47N 18°01' W 063°03'0 0.1
2018-Apr-19 14:26N 18°01' W 063°03'2 2.4
2018-Apr-19 13:49N 18°00' W 063°04'0 0.1
2018-Apr-19 13:19N 18°00' W 063°04'1 2.2
2018-Apr-19 13:00N 17°60' W 063°05'4 7.1
2018-Apr-19 12:29N 17°57' W 063°02'1116.5
2018-Apr-19 11:49N 18°02' W 062°52'2117.5
2018-Apr-19 10:39N 18°12' W 062°34'317.7
2018-Apr-19 10:30N 18°14' W 062°31'917.6
2018-Apr-19 10:00N 18°18' W 062°23'917.8
2018-Apr-19 09:29N 18°23' W 062°15'  
2018-Apr-14 07:19N 36°52' W 026°29'618.2
2018-Apr-14 07:00N 36°55' W 026°23'917.9
2018-Apr-14 06:30N 36°59' W 026°14'918.0
2018-Apr-14 06:00N 37°04' W 026°04'917.8
2018-Apr-14 05:30N 37°08' W 025°55'918.1
2018-Apr-14 05:00N 37°13' W 025°45'918.0
2018-Apr-14 04:30N 37°17' W 025°35'918.1
2018-Apr-14 04:00N 37°22' W 025°25'917.9
2018-Apr-14 03:30N 37°27' W 025°15'917.3
2018-Apr-14 03:00N 37°32' W 025°06'917.8
2018-Apr-14 02:30N 37°39' W 024°60'917.9
2018-Apr-14 02:00N 37°46' W 024°52'917.5
2018-Apr-14 01:30N 37°53' W 024°46'917.6
2018-Apr-14 01:00N 37°59' W 024°39'917.6
2018-Apr-14 00:31N 38°06' W 024°31'917.6
2018-Apr-14 00:00N 38°13' W 024°24'917.3
2018-Apr-13 23:30N 38°20' W 024°18'1017.5
2018-Apr-13 22:54N 38°28' W 024°09'817.6
2018-Apr-13 22:26N 38°35' W 024°03'  
2018-Apr-11 12:58N 48°40' W 006°17'1816.9
2018-Apr-11 11:53N 48°53' W 005°57'716.7
2018-Apr-11 11:27N 48°56' W 005°48'815.8
2018-Apr-11 10:58N 49°00' W 005°38'9815.1
2018-Apr-11 04:28N 49°48' W 003°26'716.0
2018-Apr-11 04:00N 49°52' W 003°16'815.8
2018-Apr-11 03:30N 49°56' W 003°05'815.8
2018-Apr-11 03:00N 49°59' W 002°54'816.0
2018-Apr-11 02:30N 50°02' W 002°42'816.1
2018-Apr-11 02:00N 50°04' W 002°30'916.4
2018-Apr-11 01:29N 50°06' W 002°17'715.7
2018-Apr-11 01:01N 50°06' W 002°06'917.3
2018-Apr-11 00:30N 50°02' W 001°54'917.6
2018-Apr-11 00:01N 49°59' W 001°41'918.1
2018-Apr-10 23:31N 49°55' W 001°28'918.9
2018-Apr-10 23:01N 49°51' W 001°15'918.6
2018-Apr-10 22:30N 49°47' W 001°02'918.5
2018-Apr-10 22:00N 49°43' W 000°49'918.1
2018-Apr-10 21:30N 49°40' W 000°36'917.7
2018-Apr-10 21:00N 49°36' W 000°23'917.1
2018-Apr-10 20:30N 49°33' W 000°11'714.2
2018-Apr-10 20:00N 49°30' W 000°01'612.1
2018-Apr-10 19:30N 49°28' E 000°07'  
Track history (hours):
 
Tides and Currents Weather Stations Pressure Air Temp Water Temp Dewpoint Dewpoint Depression Visibility Wind Speed Wind Dir Waves Ship Positions

Marfret Guyane

Last reported at 2018-Apr-20 19:27 UTC. Time now 2018-Apr-22 04:54 UTC.
Position N 16°06' W 062°51'.

Length 170 m; draft 8.4 m.

Type: Cargo ship. MMSI: 226324000.

Date/timePositionNaut miles runAvg speedWind from/ knotsBaromVisibWave heightAir tempDewpointWater temp
2018-Apr-20 19:27N 16°06' W 062°51'1216.9
2018-Apr-20 18:44N 16°18' W 062°53'817.3
2018-Apr-20 18:16N 16°26' W 062°55'5617.3
2018-Apr-20 15:03N 17°21' W 063°04'116.7
2018-Apr-20 15:00N 17°22' W 063°05'1017.3
2018-Apr-20 14:26N 17°31' W 063°06'817.4
2018-Apr-20 13:57N 17°40' W 063°06'816.6
2018-Apr-20 13:28N 17°48' W 063°05'1215.5
2018-Apr-20 12:43N 17°59' W 063°05'210.0
2018-Apr-20 12:30N 18°00' W 063°03'1 1.0
2018-Apr-20 11:56N 18°01' W 063°03'0 0.0
2018-Apr-20 11:26N 18°01' W 063°03'0 0.0
2018-Apr-20 10:44N 18°01' W 063°03'0 0.0
2018-Apr-20 10:14N 18°01' W 063°03'0 0.0
2018-Apr-20 09:47N 18°01' W 063°03'0 0.0
2018-Apr-20 09:29N 18°01' W 063°03'0 0.0
2018-Apr-20 08:59N 18°01' W 063°03'0 0.0
2018-Apr-20 08:20N 18°01' W 063°03'0 0.0
2018-Apr-20 07:50N 18°01' W 063°03'0 0.0
2018-Apr-20 07:20N 18°01' W 063°03'0 0.0
2018-Apr-20 06:53N 18°01' W 063°03'0 0.0
2018-Apr-20 06:08N 18°01' W 063°03'0 0.0
2018-Apr-20 05:50N 18°01' W 063°03'0 0.0
2018-Apr-20 05:23N 18°01' W 063°03'0 0.0
2018-Apr-20 04:41N 18°01' W 063°03'0 0.0
2018-Apr-20 04:26N 18°01' W 063°03'0 0.0
2018-Apr-20 03:56N 18°01' W 063°03'0 0.0
2018-Apr-20 03:26N 18°01' W 063°03'0 0.0
2018-Apr-20 02:56N 18°01' W 063°03'0 0.0
2018-Apr-20 02:26N 18°01' W 063°03'0 0.0
2018-Apr-20 01:56N 18°01' W 063°03'0 0.0
2018-Apr-20 01:26N 18°01' W 063°03'0 0.0
2018-Apr-20 00:47N 18°01' W 063°03'0 0.0
2018-Apr-20 00:29N 18°01' W 063°03'0 0.0
2018-Apr-19 23:47N 18°01' W 063°03'0 0.0
2018-Apr-19 23:17N 18°01' W 063°03'0 0.0
2018-Apr-19 22:59N 18°01' W 063°03'0 0.0
2018-Apr-19 22:29N 18°01' W 063°03'0 0.0
2018-Apr-19 21:50N 18°01' W 063°03'0 0.0
2018-Apr-19 21:20N 18°01' W 063°03'0 0.0
2018-Apr-19 20:50N 18°01' W 063°03'0 0.0
2018-Apr-19 20:23N 18°01' W 063°03'0 0.0
2018-Apr-19 18:56N 18°01' W 063°03'0 0.0
2018-Apr-19 18:23N 18°01' W 063°03'0 0.0
2018-Apr-19 16:56N 18°01' W 063°03'0 0.0
2018-Apr-19 16:29N 18°01' W 063°03'0 0.0
2018-Apr-19 15:59N 18°01' W 063°03'0 0.0
2018-Apr-19 15:29N 18°01' W 063°03'0 0.0
2018-Apr-19 14:47N 18°01' W 063°03'0 0.1
2018-Apr-19 14:26N 18°01' W 063°03'2 2.4
2018-Apr-19 13:49N 18°00' W 063°04'0 0.1
2018-Apr-19 13:19N 18°00' W 063°04'1 2.2
2018-Apr-19 13:00N 17°60' W 063°05'4 7.1
2018-Apr-19 12:29N 17°57' W 063°02'1116.5
2018-Apr-19 11:49N 18°02' W 062°52'2117.5
2018-Apr-19 10:39N 18°12' W 062°34'317.7
2018-Apr-19 10:30N 18°14' W 062°31'917.6
2018-Apr-19 10:00N 18°18' W 062°23'917.8
2018-Apr-19 09:29N 18°23' W 062°15'  
2018-Apr-14 07:19N 36°52' W 026°29'618.2
2018-Apr-14 07:00N 36°55' W 026°23'917.9
2018-Apr-14 06:30N 36°59' W 026°14'918.0
2018-Apr-14 06:00N 37°04' W 026°04'917.8
2018-Apr-14 05:30N 37°08' W 025°55'918.1
2018-Apr-14 05:00N 37°13' W 025°45'918.0
2018-Apr-14 04:30N 37°17' W 025°35'918.1
2018-Apr-14 04:00N 37°22' W 025°25'917.9
2018-Apr-14 03:30N 37°27' W 025°15'917.3
2018-Apr-14 03:00N 37°32' W 025°06'917.8
2018-Apr-14 02:30N 37°39' W 024°60'917.9
2018-Apr-14 02:00N 37°46' W 024°52'917.5
2018-Apr-14 01:30N 37°53' W 024°46'917.6
2018-Apr-14 01:00N 37°59' W 024°39'917.6
2018-Apr-14 00:31N 38°06' W 024°31'917.6
2018-Apr-14 00:00N 38°13' W 024°24'917.3
2018-Apr-13 23:30N 38°20' W 024°18'1017.5
2018-Apr-13 22:54N 38°28' W 024°09'817.6
2018-Apr-13 22:26N 38°35' W 024°03'  
2018-Apr-11 12:58N 48°40' W 006°17'1816.9
2018-Apr-11 11:53N 48°53' W 005°57'716.7
2018-Apr-11 11:27N 48°56' W 005°48'815.8
2018-Apr-11 10:58N 49°00' W 005°38'9815.1
2018-Apr-11 04:28N 49°48' W 003°26'716.0
2018-Apr-11 04:00N 49°52' W 003°16'815.8
2018-Apr-11 03:30N 49°56' W 003°05'815.8
2018-Apr-11 03:00N 49°59' W 002°54'816.0
2018-Apr-11 02:30N 50°02' W 002°42'816.1
2018-Apr-11 02:00N 50°04' W 002°30'916.4
2018-Apr-11 01:29N 50°06' W 002°17'715.7
2018-Apr-11 01:01N 50°06' W 002°06'917.3
2018-Apr-11 00:30N 50°02' W 001°54'917.6
2018-Apr-11 00:01N 49°59' W 001°41'918.1
2018-Apr-10 23:31N 49°55' W 001°28'918.9
2018-Apr-10 23:01N 49°51' W 001°15'918.6
2018-Apr-10 22:30N 49°47' W 001°02'918.5
2018-Apr-10 22:00N 49°43' W 000°49'918.1
2018-Apr-10 21:30N 49°40' W 000°36'917.7
2018-Apr-10 21:00N 49°36' W 000°23'917.1
2018-Apr-10 20:30N 49°33' W 000°11'714.2
2018-Apr-10 20:00N 49°30' W 000°01'612.1
2018-Apr-10 19:30N 49°28' E 000°07'  

Dump ship's entire track history